createdAt,value
2024-02-24T00:01:11.746Z,2.10
2024-02-24T00:03:39.171Z,1.90
2024-02-24T00:06:06.792Z,2.37
2024-02-24T00:08:34.324Z,2.40
2024-02-24T00:11:01.780Z,2.50
2024-02-24T00:13:29.178Z,2.30
2024-02-24T00:15:56.547Z,2.00
2024-02-24T00:18:23.938Z,2.03
2024-02-24T00:20:51.359Z,2.20
2024-02-24T00:23:18.827Z,2.93
2024-02-24T00:25:46.242Z,2.37
2024-02-24T00:28:13.896Z,2.20
2024-02-24T00:30:41.326Z,2.30
2024-02-24T00:33:08.845Z,2.50
2024-02-24T00:35:36.302Z,2.13
2024-02-24T00:38:03.765Z,2.33
2024-02-24T00:40:31.196Z,2.70
2024-02-24T00:42:58.642Z,2.43
2024-02-24T00:45:25.979Z,2.60
2024-02-24T00:47:53.454Z,2.87
2024-02-24T00:50:21.023Z,2.87
2024-02-24T00:52:48.488Z,2.40
2024-02-24T00:55:15.836Z,2.77
2024-02-24T00:57:43.238Z,2.80
2024-02-24T01:00:11.707Z,2.50
2024-02-24T01:02:39.168Z,3.20
2024-02-24T01:05:07.520Z,2.60
2024-02-24T01:07:34.963Z,3.10
2024-02-24T01:10:02.483Z,2.70
2024-02-24T01:12:29.944Z,2.97
2024-02-24T01:14:58.504Z,2.40
2024-02-24T01:17:26.348Z,2.83
2024-02-24T01:19:53.769Z,2.90
2024-02-24T01:22:21.246Z,3.00
2024-02-24T01:24:48.734Z,2.37
2024-02-24T01:27:16.223Z,2.50
2024-02-24T01:29:43.715Z,2.93
2024-02-24T01:32:11.212Z,2.70
2024-02-24T01:34:38.724Z,2.60
2024-02-24T01:37:06.367Z,2.60
2024-02-24T01:39:33.909Z,2.67
2024-02-24T01:42:01.319Z,2.43
2024-02-24T01:44:28.824Z,2.83
2024-02-24T01:46:56.230Z,2.27
2024-02-24T01:49:23.787Z,2.50
2024-02-24T01:51:51.384Z,2.60
2024-02-24T01:54:18.908Z,2.10
2024-02-24T01:56:47.989Z,2.33
2024-02-24T01:59:16.558Z,2.40
2024-02-24T02:01:44.000Z,2.37
2024-02-24T02:04:11.463Z,2.30
2024-02-24T02:06:39.060Z,1.97
2024-02-24T02:09:06.630Z,2.47
2024-02-24T02:11:44.174Z,2.33
2024-02-24T02:14:19.293Z,2.20
2024-02-24T02:16:46.650Z,1.93
2024-02-24T02:19:14.233Z,2.07
2024-02-24T02:21:45.067Z,2.00
2024-02-24T02:24:12.995Z,2.00
2024-02-24T02:26:40.762Z,2.10
2024-02-24T02:29:08.193Z,2.30
2024-02-24T02:31:35.659Z,2.20
2024-02-24T02:34:03.092Z,2.00
2024-02-24T02:36:30.592Z,2.30
2024-02-24T02:38:57.931Z,1.87
2024-02-24T02:41:25.351Z,2.27
2024-02-24T02:43:52.786Z,2.00
2024-02-24T02:46:20.192Z,1.97
2024-02-24T02:48:47.689Z,2.13
2024-02-24T02:51:15.442Z,1.87
2024-02-24T02:53:42.908Z,1.73
2024-02-24T02:56:14.444Z,1.80
2024-02-24T02:58:41.941Z,2.10
2024-02-24T03:01:10.630Z,2.07
2024-02-24T03:03:38.351Z,2.30
2024-02-24T03:06:07.207Z,1.97
2024-02-24T03:08:35.209Z,1.80
2024-02-24T03:11:04.407Z,1.97
2024-02-24T03:13:32.955Z,1.83
2024-02-24T03:16:00.487Z,2.10
2024-02-24T03:18:27.996Z,1.83
2024-02-24T03:20:55.475Z,2.07
2024-02-24T03:23:22.970Z,1.83
2024-02-24T03:25:50.400Z,2.13
2024-02-24T03:28:18.397Z,2.17
2024-02-24T03:30:46.144Z,2.00
2024-02-24T03:33:14.178Z,1.90
2024-02-24T03:35:41.866Z,1.90
2024-02-24T03:38:09.350Z,1.70
2024-02-24T03:40:37.846Z,2.00
2024-02-24T03:43:05.432Z,2.20
2024-02-24T03:45:33.775Z,2.40
2024-02-24T03:48:01.398Z,2.37
2024-02-24T03:50:29.077Z,2.17
2024-02-24T03:52:56.506Z,2.47
2024-02-24T03:55:23.953Z,2.10
2024-02-24T03:57:51.290Z,2.03
2024-02-24T04:00:19.224Z,1.90
2024-02-24T04:02:46.589Z,1.90
2024-02-24T04:05:14.348Z,2.33
2024-02-24T04:07:41.820Z,2.50
2024-02-24T04:10:09.630Z,1.83
2024-02-24T04:12:37.126Z,2.10
2024-02-24T04:15:05.059Z,2.27
2024-02-24T04:17:32.641Z,2.20
2024-02-24T04:20:00.179Z,2.00
2024-02-24T04:22:27.631Z,2.30
2024-02-24T04:24:55.102Z,2.43
2024-02-24T04:27:22.518Z,2.50
2024-02-24T04:29:49.889Z,2.10
2024-02-24T04:32:17.324Z,2.10
2024-02-24T04:34:44.930Z,2.50
2024-02-24T04:37:12.399Z,2.03
2024-02-24T04:39:39.863Z,2.27
2024-02-24T04:42:08.181Z,2.67
2024-02-24T04:44:35.611Z,2.43
2024-02-24T04:47:03.193Z,2.27
2024-02-24T04:49:30.955Z,2.10
2024-02-24T04:51:58.393Z,2.20
2024-02-24T04:54:26.327Z,2.50
2024-02-24T04:56:53.740Z,2.63
2024-02-24T04:59:21.293Z,2.60
2024-02-24T05:01:48.637Z,2.47
2024-02-24T05:04:16.131Z,3.07
2024-02-24T05:06:43.581Z,2.80
2024-02-24T05:09:13.561Z,2.60
2024-02-24T05:11:41.951Z,2.70
2024-02-24T05:14:09.534Z,2.70
2024-02-24T05:16:42.311Z,2.63
2024-02-24T05:19:09.950Z,2.90
2024-02-24T05:21:38.172Z,2.30
2024-02-24T05:24:07.662Z,2.57
2024-02-24T05:26:35.056Z,3.00
2024-02-24T05:29:02.514Z,2.93
2024-02-24T05:31:29.955Z,2.80
2024-02-24T05:33:58.304Z,2.40
2024-02-24T05:36:25.840Z,3.47
2024-02-24T05:38:53.199Z,3.00
2024-02-24T05:41:20.680Z,3.37
2024-02-24T05:43:48.132Z,2.77
2024-02-24T05:46:18.248Z,2.53
2024-02-24T05:48:47.723Z,2.30
2024-02-24T05:51:15.904Z,2.47
2024-02-24T05:53:43.597Z,2.80
2024-02-24T05:56:11.118Z,2.73
2024-02-24T05:58:38.595Z,2.80
2024-02-24T06:01:06.112Z,2.67
2024-02-24T06:03:33.656Z,3.07
2024-02-24T06:06:01.133Z,2.60
2024-02-24T06:08:29.189Z,2.50
2024-02-24T06:10:56.779Z,3.13
2024-02-24T06:13:24.334Z,2.97
2024-02-24T06:15:51.823Z,3.17
2024-02-24T06:18:21.372Z,2.90
2024-02-24T06:20:48.976Z,3.53
2024-02-24T06:23:16.578Z,3.63
2024-02-24T06:25:43.988Z,3.43
2024-02-24T06:28:13.060Z,3.30
2024-02-24T06:30:40.462Z,3.77
2024-02-24T06:33:08.998Z,3.27
2024-02-24T06:35:36.757Z,3.37
2024-02-24T06:38:04.764Z,3.33
2024-02-24T06:40:37.683Z,4.10
2024-02-24T06:43:12.612Z,3.87
2024-02-24T06:45:40.103Z,3.60
2024-02-24T06:48:08.079Z,3.27
2024-02-24T06:50:35.756Z,3.53
2024-02-24T06:53:03.518Z,4.20
2024-02-24T06:55:30.959Z,4.33
2024-02-24T06:57:58.401Z,3.67
2024-02-24T07:00:25.997Z,3.03
2024-02-24T07:02:55.063Z,3.63
2024-02-24T07:05:22.873Z,3.70
2024-02-24T07:07:50.466Z,3.50
2024-02-24T07:10:17.965Z,3.90
2024-02-24T07:12:45.916Z,2.93
2024-02-24T07:15:13.506Z,3.37
2024-02-24T07:17:42.279Z,3.27
2024-02-24T07:20:10.965Z,3.50
2024-02-24T07:22:38.464Z,3.43
2024-02-24T07:25:06.682Z,3.30
2024-02-24T07:27:35.937Z,3.60
2024-02-24T07:30:03.540Z,4.07
2024-02-24T07:32:31.138Z,3.53
2024-02-24T07:35:00.123Z,3.20
2024-02-24T07:37:27.617Z,3.40
2024-02-24T07:39:55.109Z,3.53
2024-02-24T07:42:22.549Z,3.40
2024-02-24T07:44:49.975Z,3.70
2024-02-24T07:47:19.045Z,3.20
2024-02-24T07:49:47.136Z,3.30
2024-02-24T07:52:14.646Z,3.60
2024-02-24T07:54:42.044Z,3.70
2024-02-24T07:57:09.530Z,3.50
2024-02-24T07:59:36.989Z,3.30
2024-02-24T08:02:04.693Z,3.40
2024-02-24T08:04:32.181Z,3.40
2024-02-24T08:06:59.674Z,3.37
2024-02-24T08:09:27.130Z,3.27
2024-02-24T08:11:54.701Z,3.37
2024-02-24T08:14:23.847Z,3.33
2024-02-24T08:16:51.245Z,3.53
2024-02-24T08:19:18.743Z,2.90
2024-02-24T08:21:46.199Z,2.90
2024-02-24T08:24:17.780Z,3.20
2024-02-24T08:26:46.773Z,3.10
2024-02-24T08:29:14.242Z,3.50
2024-02-24T08:31:44.142Z,3.23
2024-02-24T08:34:12.567Z,2.73
2024-02-24T08:36:40.802Z,2.90
2024-02-24T08:39:08.351Z,2.87
2024-02-24T08:41:38.348Z,2.37
2024-02-24T08:44:06.697Z,2.80
2024-02-24T08:46:34.225Z,3.00
2024-02-24T08:49:02.741Z,2.50
2024-02-24T08:51:30.514Z,2.57
2024-02-24T08:53:58.070Z,2.47
2024-02-24T08:56:26.614Z,2.07
2024-02-24T08:58:57.839Z,2.20
2024-02-24T09:01:25.322Z,2.10
2024-02-24T09:03:52.950Z,2.50
2024-02-24T09:06:20.619Z,2.40
2024-02-24T09:08:48.157Z,2.43
2024-02-24T09:11:15.764Z,2.27
2024-02-24T09:13:46.359Z,2.50
2024-02-24T09:16:19.375Z,2.30
2024-02-24T09:18:46.952Z,2.30
2024-02-24T09:21:14.452Z,2.20
2024-02-24T09:23:41.898Z,2.13
2024-02-24T09:26:09.331Z,1.70
2024-02-24T09:28:36.783Z,2.20
2024-02-24T09:31:04.372Z,2.37
2024-02-24T09:33:31.890Z,1.80
2024-02-24T09:36:00.546Z,1.97
2024-02-24T09:38:28.143Z,1.60
2024-02-24T09:40:55.662Z,1.50
2024-02-24T09:43:23.660Z,1.80
2024-02-24T09:45:52.356Z,1.57
2024-02-24T09:48:20.930Z,1.43
2024-02-24T09:50:48.496Z,1.77
2024-02-24T09:53:16.094Z,1.70
2024-02-24T09:55:44.806Z,1.60
2024-02-24T09:58:15.926Z,1.53
2024-02-24T10:00:45.369Z,1.30
2024-02-24T10:03:13.726Z,1.30
2024-02-24T10:05:41.568Z,1.33
2024-02-24T10:08:11.018Z,1.70
2024-02-24T10:10:38.845Z,1.57
2024-02-24T10:13:06.266Z,1.17
2024-02-24T10:15:35.879Z,1.70
2024-02-24T10:18:05.805Z,1.10
2024-02-24T10:20:33.588Z,0.97
2024-02-24T10:23:02.047Z,0.90
2024-02-24T10:25:29.988Z,1.33
2024-02-24T10:27:57.500Z,1.17
2024-02-24T10:30:26.459Z,1.50
2024-02-24T10:32:58.133Z,1.30
2024-02-24T10:35:25.752Z,1.20
2024-02-24T10:38:11.413Z,1.10
2024-02-24T10:40:45.622Z,0.87
2024-02-24T10:43:13.853Z,1.40
2024-02-24T10:45:41.267Z,0.80
2024-02-24T10:48:09.117Z,1.07
2024-02-24T10:50:36.945Z,1.00
2024-02-24T10:53:06.435Z,0.97
2024-02-24T10:55:36.961Z,1.07
2024-02-24T10:58:04.456Z,1.10
2024-02-24T11:00:36.202Z,0.87
2024-02-24T11:03:06.310Z,1.20
2024-02-24T11:05:36.298Z,1.10
2024-02-24T11:08:04.361Z,1.10
2024-02-24T11:10:35.547Z,1.13
2024-02-24T11:13:04.132Z,1.00
2024-02-24T11:15:33.817Z,1.00
2024-02-24T11:18:01.733Z,1.00
2024-02-24T11:20:53.882Z,1.13
2024-02-24T11:23:34.587Z,1.10
2024-02-24T11:26:14.229Z,1.30
2024-02-24T11:28:46.495Z,1.17
2024-02-24T11:31:33.221Z,1.00
2024-02-24T11:34:09.785Z,1.20
2024-02-24T11:36:40.873Z,1.20
2024-02-24T11:39:13.380Z,1.10
2024-02-24T11:41:44.608Z,1.20
2024-02-24T11:44:12.454Z,0.90
2024-02-24T11:46:40.710Z,1.20
2024-02-24T11:49:08.270Z,1.00
2024-02-24T11:51:36.558Z,1.10
2024-02-24T11:54:08.593Z,1.00
2024-02-24T11:56:38.720Z,1.07
2024-02-24T11:59:10.665Z,1.10
2024-02-24T12:01:41.242Z,1.10
2024-02-24T12:04:08.813Z,1.23
2024-02-24T12:06:36.480Z,1.10
2024-02-24T12:09:04.235Z,0.83
2024-02-24T12:11:36.522Z,1.20
2024-02-24T12:14:04.202Z,1.10
2024-02-24T12:16:31.569Z,0.90
2024-02-24T12:19:02.171Z,1.37
2024-02-24T12:21:30.831Z,1.03
2024-02-24T12:23:58.824Z,0.80
2024-02-24T12:26:29.037Z,1.10
2024-02-24T12:28:56.752Z,1.00
2024-02-24T12:31:25.411Z,1.00
2024-02-24T12:33:53.136Z,1.10
2024-02-24T12:36:22.002Z,0.90
2024-02-24T12:38:51.034Z,1.30
2024-02-24T12:41:19.733Z,0.97
2024-02-24T12:43:47.247Z,1.10
2024-02-24T12:46:15.282Z,0.70
2024-02-24T12:48:44.804Z,0.60
2024-02-24T12:51:13.826Z,0.60
2024-02-24T12:53:43.186Z,0.80
2024-02-24T12:56:10.619Z,0.77
2024-02-24T12:58:40.392Z,0.90
2024-02-24T13:01:09.965Z,0.70
2024-02-24T13:03:37.688Z,1.07
2024-02-24T13:06:06.047Z,0.80
2024-02-24T13:08:33.630Z,0.73
2024-02-24T13:11:01.342Z,0.87
2024-02-24T13:13:29.273Z,0.90
2024-02-24T13:15:56.649Z,0.73
2024-02-24T13:18:24.299Z,1.03
2024-02-24T13:20:51.898Z,0.90
2024-02-24T13:23:19.475Z,0.93
2024-02-24T13:25:46.975Z,0.70
2024-02-24T13:28:15.159Z,0.90
2024-02-24T13:30:42.635Z,0.50
2024-02-24T13:33:10.572Z,0.57
2024-02-24T13:35:38.104Z,0.57
2024-02-24T13:38:05.590Z,0.60
2024-02-24T13:40:33.292Z,0.70
2024-02-24T13:43:01.631Z,0.90
2024-02-24T13:45:29.027Z,1.03
2024-02-24T13:47:56.536Z,1.67
2024-02-24T13:50:25.018Z,0.97
2024-02-24T13:52:53.807Z,0.60
2024-02-24T13:55:21.271Z,0.70
2024-02-24T13:57:48.763Z,0.93
2024-02-24T14:00:18.591Z,1.83
2024-02-24T14:02:46.243Z,3.17
2024-02-24T14:05:13.909Z,0.90
2024-02-24T14:07:41.500Z,1.00
2024-02-24T14:10:09.518Z,1.00
2024-02-24T14:12:36.872Z,1.07
2024-02-24T14:15:04.971Z,1.30
2024-02-24T14:17:32.548Z,0.50
2024-02-24T14:20:05.552Z,1.00
2024-02-24T14:22:39.147Z,0.70
2024-02-24T14:25:07.200Z,0.70
2024-02-24T14:27:34.680Z,0.80
2024-02-24T14:30:02.309Z,0.90
2024-02-24T14:32:29.742Z,0.80
2024-02-24T14:34:57.318Z,0.90
2024-02-24T14:37:24.846Z,0.60
2024-02-24T14:39:52.401Z,0.50
2024-02-24T14:42:20.125Z,0.80
2024-02-24T14:44:47.523Z,1.17
2024-02-24T14:47:14.999Z,0.73
2024-02-24T14:49:42.665Z,1.37
2024-02-24T14:52:10.808Z,1.00
2024-02-24T14:54:42.233Z,0.67
2024-02-24T14:57:13.761Z,0.70
2024-02-24T14:59:43.615Z,0.60
2024-02-24T15:02:15.116Z,0.67
2024-02-24T15:04:46.798Z,0.73
2024-02-24T15:07:14.408Z,0.30
2024-02-24T15:09:41.832Z,0.50
2024-02-24T15:12:09.490Z,1.30
2024-02-24T15:14:38.566Z,0.80
2024-02-24T15:17:06.104Z,2.23
2024-02-24T15:19:37.378Z,1.07
2024-02-24T15:22:05.142Z,1.97
2024-02-24T15:24:32.554Z,0.47
2024-02-24T15:27:00.855Z,0.53
2024-02-24T15:29:28.215Z,0.90
2024-02-24T15:31:55.874Z,0.67
2024-02-24T15:34:25.115Z,1.40
2024-02-24T15:36:53.894Z,11.67
2024-02-24T15:39:21.568Z,2.83
2024-02-24T15:41:50.293Z,0.87
2024-02-24T15:44:18.348Z,0.80
2024-02-24T15:46:47.840Z,0.80
2024-02-24T15:49:15.511Z,0.60
2024-02-24T15:51:44.433Z,0.80
2024-02-24T15:54:12.303Z,3.77
2024-02-24T15:56:40.059Z,1.00
2024-02-24T15:59:07.564Z,1.10
2024-02-24T16:01:35.022Z,1.90
2024-02-24T16:04:02.534Z,1.20
2024-02-24T16:06:32.261Z,1.07
2024-02-24T16:09:00.012Z,0.80
2024-02-24T16:11:27.540Z,0.87
2024-02-24T16:13:57.751Z,0.70
2024-02-24T16:16:27.234Z,1.43
2024-02-24T16:18:54.785Z,0.70
2024-02-24T16:21:22.463Z,0.70
2024-02-24T16:23:49.875Z,1.10
2024-02-24T16:26:17.414Z,0.77
2024-02-24T16:28:44.852Z,0.70
2024-02-24T16:31:12.896Z,0.60
2024-02-24T16:33:40.967Z,0.73
2024-02-24T16:36:09.929Z,0.80
2024-02-24T16:38:40.559Z,0.93
2024-02-24T16:41:08.108Z,1.60
2024-02-24T16:43:36.433Z,1.10
2024-02-24T16:46:04.347Z,0.70
2024-02-24T16:48:33.865Z,1.70
2024-02-24T16:51:01.795Z,0.57
2024-02-24T16:53:29.281Z,0.70
2024-02-24T16:55:56.747Z,0.77
2024-02-24T16:58:24.245Z,1.33
2024-02-24T17:00:51.678Z,6.23
2024-02-24T17:03:20.204Z,3.00
2024-02-24T17:05:47.830Z,2.70
2024-02-24T17:08:16.913Z,4.83
2024-02-24T17:10:47.109Z,3.20
2024-02-24T17:13:18.185Z,2.90
2024-02-24T17:15:45.636Z,1.23
2024-02-24T17:18:20.866Z,1.10
2024-02-24T17:20:51.625Z,1.17
2024-02-24T17:23:19.022Z,1.33
2024-02-24T17:25:46.628Z,1.40
2024-02-24T17:28:17.408Z,1.23
2024-02-24T17:30:45.167Z,0.80
2024-02-24T17:33:12.775Z,1.03
2024-02-24T17:35:40.661Z,0.80
2024-02-24T17:38:09.120Z,1.20
2024-02-24T17:40:36.939Z,0.80
2024-02-24T17:43:04.712Z,0.80
2024-02-24T17:45:32.928Z,0.90
2024-02-24T17:48:00.688Z,0.80
2024-02-24T17:50:28.337Z,1.43
2024-02-24T17:52:56.182Z,0.70
2024-02-24T17:55:23.707Z,0.70
2024-02-24T17:57:51.201Z,0.70
2024-02-24T18:00:19.372Z,0.60
2024-02-24T18:02:47.752Z,0.47
2024-02-24T18:05:17.788Z,0.40
2024-02-24T18:07:50.839Z,0.60
2024-02-24T18:10:18.413Z,0.50
2024-02-24T18:12:45.899Z,0.40
2024-02-24T18:15:15.236Z,0.70
2024-02-24T18:17:42.925Z,0.37
2024-02-24T18:20:11.674Z,0.57
2024-02-24T18:22:43.256Z,0.40
2024-02-24T18:25:12.433Z,0.40
2024-02-24T18:27:39.820Z,0.70
2024-02-24T18:30:08.771Z,0.40
2024-02-24T18:32:38.114Z,0.30
2024-02-24T18:35:06.164Z,0.23
2024-02-24T18:37:36.209Z,0.50
2024-02-24T18:40:08.404Z,0.40
2024-02-24T18:42:37.454Z,0.20
2024-02-24T18:45:06.773Z,0.40
2024-02-24T18:47:34.367Z,0.40
2024-02-24T18:50:01.845Z,0.30
2024-02-24T18:52:30.401Z,0.30
2024-02-24T18:55:00.500Z,0.43
2024-02-24T18:57:29.059Z,0.40
2024-02-24T18:59:57.396Z,0.40
2024-02-24T19:02:24.919Z,0.40
2024-02-24T19:04:52.456Z,0.50
2024-02-24T19:07:19.863Z,0.30
2024-02-24T19:09:47.286Z,0.40
2024-02-24T19:12:14.863Z,0.30
2024-02-24T19:14:49.017Z,0.57
2024-02-24T19:17:22.153Z,0.33
2024-02-24T19:19:50.602Z,0.40
2024-02-24T19:22:18.079Z,0.40
2024-02-24T19:24:45.989Z,0.40
2024-02-24T19:27:13.538Z,0.30
2024-02-24T19:29:45.643Z,0.40
2024-02-24T19:32:13.899Z,0.50
2024-02-24T19:34:41.607Z,0.30
2024-02-24T19:37:10.913Z,0.60
2024-02-24T19:39:38.717Z,0.40
2024-02-24T19:42:06.666Z,0.30
2024-02-24T19:44:36.273Z,0.33
2024-02-24T19:47:05.983Z,0.47
2024-02-24T19:49:33.558Z,0.60
2024-02-24T19:52:02.628Z,0.47
2024-02-24T19:54:30.013Z,0.80
2024-02-24T19:56:57.486Z,0.70
2024-02-24T19:59:25.301Z,1.20
2024-02-24T20:01:53.041Z,0.97
2024-02-24T20:04:20.894Z,0.97
2024-02-24T20:06:48.463Z,0.53
2024-02-24T20:09:16.042Z,0.53
2024-02-24T20:11:43.426Z,0.90
2024-02-24T20:14:12.428Z,0.70
2024-02-24T20:16:39.831Z,0.70
2024-02-24T20:19:08.786Z,0.70
2024-02-24T20:21:37.013Z,0.70
2024-02-24T20:24:04.927Z,1.17
2024-02-24T20:26:32.440Z,1.00
2024-02-24T20:28:59.894Z,1.70
2024-02-24T20:31:27.389Z,2.03
2024-02-24T20:34:00.573Z,1.77
2024-02-24T20:36:34.537Z,1.20
2024-02-24T20:39:03.088Z,1.40
2024-02-24T20:41:31.474Z,1.27
2024-02-24T20:44:01.196Z,1.47
2024-02-24T20:46:29.049Z,1.40
2024-02-24T20:48:56.605Z,1.13
2024-02-24T20:51:24.107Z,1.20
2024-02-24T20:53:51.490Z,0.80
2024-02-24T20:56:18.961Z,1.30
2024-02-24T20:58:46.443Z,1.40
2024-02-24T21:01:14.255Z,1.50
2024-02-24T21:03:42.188Z,1.50
2024-02-24T21:06:09.719Z,1.60
2024-02-24T21:08:39.278Z,1.90
2024-02-24T21:11:08.351Z,2.07
2024-02-24T21:13:36.485Z,2.00
2024-02-24T21:16:04.091Z,1.83
2024-02-24T21:18:32.324Z,2.00
2024-02-24T21:21:00.187Z,1.90
2024-02-24T21:23:27.846Z,2.00
2024-02-24T21:25:55.447Z,2.00
2024-02-24T21:28:22.918Z,2.20
2024-02-24T21:30:51.013Z,2.30
2024-02-24T21:33:18.790Z,2.17
2024-02-24T21:35:47.438Z,2.47
2024-02-24T21:38:14.901Z,2.27
2024-02-24T21:40:42.507Z,2.60
2024-02-24T21:43:10.050Z,2.33
2024-02-24T21:45:37.488Z,2.80
2024-02-24T21:48:05.717Z,2.50
2024-02-24T21:50:38.069Z,2.40
2024-02-24T21:53:05.705Z,2.67
2024-02-24T21:55:33.709Z,3.00
2024-02-24T21:58:01.479Z,2.53
2024-02-24T22:00:28.913Z,2.40
2024-02-24T22:02:56.671Z,2.40
2024-02-24T22:05:24.580Z,2.30
2024-02-24T22:07:52.253Z,2.60
2024-02-24T22:10:29.534Z,2.63
2024-02-24T22:12:59.487Z,2.30
2024-02-24T22:15:27.555Z,2.40
2024-02-24T22:18:00.203Z,2.40
2024-02-24T22:20:28.840Z,2.50
2024-02-24T22:22:59.589Z,2.10
2024-02-24T22:25:27.040Z,2.10
2024-02-24T22:27:59.798Z,2.00
2024-02-24T22:30:28.438Z,2.20
2024-02-24T22:32:57.611Z,2.00
2024-02-24T22:35:25.189Z,2.40
2024-02-24T22:37:52.778Z,2.17
2024-02-24T22:40:20.259Z,1.90
2024-02-24T22:42:47.741Z,3.10
2024-02-24T22:45:15.274Z,2.30
2024-02-24T22:47:48.750Z,2.03
2024-02-24T22:50:17.150Z,1.97
2024-02-24T22:52:44.608Z,2.03
2024-02-24T22:55:12.905Z,2.10
2024-02-24T22:57:43.475Z,2.17
2024-02-24T23:00:15.027Z,2.20
2024-02-24T23:02:43.125Z,2.17
2024-02-24T23:05:16.969Z,1.93
2024-02-24T23:07:44.964Z,2.07
2024-02-24T23:10:12.880Z,1.70
2024-02-24T23:12:40.614Z,2.00
2024-02-24T23:15:11.585Z,2.10
2024-02-24T23:17:41.482Z,1.80
2024-02-24T23:20:16.478Z,1.70
2024-02-24T23:22:43.851Z,1.43
2024-02-24T23:25:11.528Z,1.60
2024-02-24T23:27:39.148Z,1.40
2024-02-24T23:30:08.143Z,1.60
2024-02-24T23:32:39.804Z,1.60
2024-02-24T23:35:07.683Z,1.60
2024-02-24T23:37:35.095Z,1.63
2024-02-24T23:40:02.618Z,1.53
2024-02-24T23:42:30.031Z,1.90
2024-02-24T23:44:57.415Z,1.70
2024-02-24T23:47:24.960Z,1.57
2024-02-24T23:49:52.441Z,1.70
2024-02-24T23:52:19.968Z,1.90
2024-02-24T23:54:47.334Z,1.83
2024-02-24T23:57:14.770Z,1.83
2024-02-24T23:59:42.315Z,1.70
